sensor_id;sensor_type;location;lat;lon;timestamp;P1;durP1;ratioP1;P2;durP2;ratioP2
80788;SDS011;70191;51.114;8.678;2023-06-14T00:00:13;17.02;;;16.02;;
80788;SDS011;70191;51.114;8.678;2023-06-14T00:02:39;18.15;;;16.98;;
80788;SDS011;70191;51.114;8.678;2023-06-14T00:05:05;17.25;;;16.25;;
80788;SDS011;70191;51.114;8.678;2023-06-14T00:07:35;17.40;;;16.40;;
80788;SDS011;70191;51.114;8.678;2023-06-14T00:10:02;18.45;;;17.25;;
80788;SDS011;70191;51.114;8.678;2023-06-14T00:12:29;18.83;;;17.52;;
80788;SDS011;70191;51.114;8.678;2023-06-14T00:14:54;17.77;;;16.60;;
80788;SDS011;70191;51.114;8.678;2023-06-14T00:17:20;17.10;;;16.02;;
80788;SDS011;70191;51.114;8.678;2023-06-14T00:19:46;17.42;;;16.17;;
80788;SDS011;70191;51.114;8.678;2023-06-14T00:22:12;16.35;;;15.35;;
80788;SDS011;70191;51.114;8.678;2023-06-14T00:24:37;16.85;;;15.85;;
80788;SDS011;70191;51.114;8.678;2023-06-14T00:27:03;17.15;;;16.15;;
80788;SDS011;70191;51.114;8.678;2023-06-14T00:29:29;17.50;;;16.50;;
80788;SDS011;70191;51.114;8.678;2023-06-14T00:31:55;18.83;;;17.65;;
80788;SDS011;70191;51.114;8.678;2023-06-14T00:34:20;18.08;;;16.85;;
80788;SDS011;70191;51.114;8.678;2023-06-14T00:36:46;17.33;;;16.35;;
80788;SDS011;70191;51.114;8.678;2023-06-14T00:39:11;18.52;;;17.42;;
80788;SDS011;70191;51.114;8.678;2023-06-14T00:41:37;17.75;;;16.65;;
80788;SDS011;70191;51.114;8.678;2023-06-14T00:44:02;18.05;;;16.88;;
80788;SDS011;70191;51.114;8.678;2023-06-14T00:46:29;17.38;;;16.27;;
80788;SDS011;70191;51.114;8.678;2023-06-14T00:48:55;18.30;;;17.20;;
80788;SDS011;70191;51.114;8.678;2023-06-14T00:51:23;17.20;;;16.20;;
80788;SDS011;70191;51.114;8.678;2023-06-14T00:53:50;17.58;;;16.48;;
80788;SDS011;70191;51.114;8.678;2023-06-14T00:56:15;17.33;;;16.23;;
80788;SDS011;70191;51.114;8.678;2023-06-14T00:58:41;17.25;;;16.17;;
80788;SDS011;70191;51.114;8.678;2023-06-14T01:01:08;16.52;;;15.55;;
80788;SDS011;70191;51.114;8.678;2023-06-14T01:03:34;15.95;;;15.05;;
80788;SDS011;70191;51.114;8.678;2023-06-14T01:06:05;16.90;;;15.90;;
80788;SDS011;70191;51.114;8.678;2023-06-14T01:08:47;16.90;;;15.82;;
80788;SDS011;70191;51.114;8.678;2023-06-14T01:11:24;17.00;;;16.00;;
80788;SDS011;70191;51.114;8.678;2023-06-14T01:13:56;16.75;;;15.85;;
80788;SDS011;70191;51.114;8.678;2023-06-14T01:16:24;17.83;;;16.83;;
80788;SDS011;70191;51.114;8.678;2023-06-14T01:18:52;16.98;;;15.98;;
80788;SDS011;70191;51.114;8.678;2023-06-14T01:21:24;17.60;;;16.60;;
80788;SDS011;70191;51.114;8.678;2023-06-14T01:23:50;17.38;;;16.38;;
80788;SDS011;70191;51.114;8.678;2023-06-14T01:26:18;17.48;;;16.38;;
80788;SDS011;70191;51.114;8.678;2023-06-14T01:28:45;17.15;;;16.05;;
80788;SDS011;70191;51.114;8.678;2023-06-14T01:31:13;17.00;;;16.00;;
80788;SDS011;70191;51.114;8.678;2023-06-14T01:33:42;16.95;;;15.85;;
80788;SDS011;70191;51.114;8.678;2023-06-14T01:36:08;16.70;;;15.70;;
80788;SDS011;70191;51.114;8.678;2023-06-14T01:38:34;17.38;;;16.27;;
80788;SDS011;70191;51.114;8.678;2023-06-14T01:41:01;16.02;;;15.13;;
80788;SDS011;70191;51.114;8.678;2023-06-14T01:43:27;17.40;;;16.30;;
80788;SDS011;70191;51.114;8.678;2023-06-14T01:45:55;16.70;;;15.70;;
80788;SDS011;70191;51.114;8.678;2023-06-14T01:48:22;16.40;;;15.32;;
80788;SDS011;70191;51.114;8.678;2023-06-14T01:50:48;16.30;;;15.30;;
80788;SDS011;70191;51.114;8.678;2023-06-14T01:53:15;16.10;;;15.13;;
80788;SDS011;70191;51.114;8.678;2023-06-14T01:55:40;16.45;;;15.45;;
80788;SDS011;70191;51.114;8.678;2023-06-14T01:58:09;16.25;;;15.32;;
80788;SDS011;70191;51.114;8.678;2023-06-14T02:00:35;16.13;;;15.18;;
80788;SDS011;70191;51.114;8.678;2023-06-14T02:03:01;17.55;;;16.17;;
80788;SDS011;70191;51.114;8.678;2023-06-14T02:05:29;16.83;;;15.82;;
80788;SDS011;70191;51.114;8.678;2023-06-14T02:07:55;16.08;;;15.07;;
80788;SDS011;70191;51.114;8.678;2023-06-14T02:10:20;17.00;;;15.90;;
80788;SDS011;70191;51.114;8.678;2023-06-14T02:12:46;16.55;;;15.55;;
80788;SDS011;70191;51.114;8.678;2023-06-14T02:15:12;16.13;;;15.23;;
80788;SDS011;70191;51.114;8.678;2023-06-14T02:17:44;15.70;;;14.80;;
80788;SDS011;70191;51.114;8.678;2023-06-14T02:20:12;15.32;;;14.43;;
80788;SDS011;70191;51.114;8.678;2023-06-14T02:22:37;16.98;;;15.98;;
80788;SDS011;70191;51.114;8.678;2023-06-14T02:25:03;16.42;;;15.43;;
80788;SDS011;70191;51.114;8.678;2023-06-14T02:27:29;16.95;;;15.95;;
80788;SDS011;70191;51.114;8.678;2023-06-14T02:29:54;16.17;;;15.27;;
80788;SDS011;70191;51.114;8.678;2023-06-14T02:32:20;16.58;;;15.57;;
80788;SDS011;70191;51.114;8.678;2023-06-14T02:34:45;17.63;;;16.60;;
80788;SDS011;70191;51.114;8.678;2023-06-14T02:37:14;16.60;;;15.68;;
80788;SDS011;70191;51.114;8.678;2023-06-14T02:39:40;16.98;;;15.98;;
80788;SDS011;70191;51.114;8.678;2023-06-14T02:42:06;15.82;;;14.82;;
80788;SDS011;70191;51.114;8.678;2023-06-14T02:44:32;18.02;;;16.92;;
80788;SDS011;70191;51.114;8.678;2023-06-14T02:46:57;17.30;;;16.20;;
80788;SDS011;70191;51.114;8.678;2023-06-14T02:49:25;16.77;;;15.70;;
80788;SDS011;70191;51.114;8.678;2023-06-14T02:51:51;17.10;;;16.10;;
80788;SDS011;70191;51.114;8.678;2023-06-14T02:54:16;16.40;;;15.50;;
80788;SDS011;70191;51.114;8.678;2023-06-14T02:56:42;16.90;;;15.90;;
80788;SDS011;70191;51.114;8.678;2023-06-14T02:59:08;16.65;;;15.65;;
80788;SDS011;70191;51.114;8.678;2023-06-14T03:01:34;16.88;;;15.88;;
80788;SDS011;70191;51.114;8.678;2023-06-14T03:04:03;17.00;;;16.00;;
80788;SDS011;70191;51.114;8.678;2023-06-14T03:06:31;16.25;;;15.25;;
80788;SDS011;70191;51.114;8.678;2023-06-14T03:08:58;17.10;;;15.98;;
80788;SDS011;70191;51.114;8.678;2023-06-14T03:11:25;17.20;;;16.10;;
80788;SDS011;70191;51.114;8.678;2023-06-14T03:13:51;16.05;;;15.15;;
80788;SDS011;70191;51.114;8.678;2023-06-14T03:16:18;16.75;;;15.75;;
80788;SDS011;70191;51.114;8.678;2023-06-14T03:18:46;15.82;;;14.93;;
80788;SDS011;70191;51.114;8.678;2023-06-14T03:21:18;16.38;;;15.38;;
80788;SDS011;70191;51.114;8.678;2023-06-14T03:23:45;16.83;;;15.80;;
80788;SDS011;70191;51.114;8.678;2023-06-14T03:26:11;15.43;;;14.43;;
80788;SDS011;70191;51.114;8.678;2023-06-14T03:28:40;16.98;;;15.98;;
80788;SDS011;70191;51.114;8.678;2023-06-14T03:31:06;17.10;;;16.08;;
80788;SDS011;70191;51.114;8.678;2023-06-14T03:33:32;16.65;;;15.75;;
80788;SDS011;70191;51.114;8.678;2023-06-14T03:35:57;16.58;;;15.68;;
80788;SDS011;70191;51.114;8.678;2023-06-14T03:38:23;15.52;;;14.63;;
80788;SDS011;70191;51.114;8.678;2023-06-14T03:40:48;16.10;;;15.20;;
80788;SDS011;70191;51.114;8.678;2023-06-14T03:43:14;15.70;;;14.80;;
80788;SDS011;70191;51.114;8.678;2023-06-14T03:45:40;15.60;;;14.68;;
80788;SDS011;70191;51.114;8.678;2023-06-14T03:48:05;16.10;;;15.10;;
80788;SDS011;70191;51.114;8.678;2023-06-14T03:50:33;15.80;;;14.90;;
80788;SDS011;70191;51.114;8.678;2023-06-14T03:52:58;15.98;;;15.07;;
80788;SDS011;70191;51.114;8.678;2023-06-14T03:55:24;15.48;;;14.48;;
80788;SDS011;70191;51.114;8.678;2023-06-14T03:57:52;16.05;;;15.07;;
80788;SDS011;70191;51.114;8.678;2023-06-14T04:00:18;15.60;;;14.68;;
80788;SDS011;70191;51.114;8.678;2023-06-14T04:02:43;15.88;;;14.95;;
80788;SDS011;70191;51.114;8.678;2023-06-14T04:05:09;16.00;;;15.10;;
80788;SDS011;70191;51.114;8.678;2023-06-14T04:07:35;16.42;;;15.50;;
80788;SDS011;70191;51.114;8.678;2023-06-14T04:10:09;16.17;;;15.23;;
80788;SDS011;70191;51.114;8.678;2023-06-14T04:12:36;16.17;;;15.27;;
80788;SDS011;70191;51.114;8.678;2023-06-14T04:15:01;16.90;;;15.93;;
80788;SDS011;70191;51.114;8.678;2023-06-14T04:17:28;17.70;;;16.63;;
80788;SDS011;70191;51.114;8.678;2023-06-14T04:19:53;17.33;;;16.33;;
80788;SDS011;70191;51.114;8.678;2023-06-14T04:22:19;16.92;;;15.90;;
80788;SDS011;70191;51.114;8.678;2023-06-14T04:24:44;16.95;;;15.95;;
80788;SDS011;70191;51.114;8.678;2023-06-14T04:27:11;16.98;;;15.88;;
80788;SDS011;70191;51.114;8.678;2023-06-14T04:29:36;17.83;;;16.75;;
80788;SDS011;70191;51.114;8.678;2023-06-14T04:32:02;17.90;;;16.85;;
80788;SDS011;70191;51.114;8.678;2023-06-14T04:34:28;17.48;;;16.45;;
80788;SDS011;70191;51.114;8.678;2023-06-14T04:36:59;17.17;;;16.27;;
80788;SDS011;70191;51.114;8.678;2023-06-14T04:39:26;16.98;;;15.88;;
80788;SDS011;70191;51.114;8.678;2023-06-14T04:41:52;18.60;;;17.40;;
80788;SDS011;70191;51.114;8.678;2023-06-14T04:44:21;18.20;;;17.10;;
80788;SDS011;70191;51.114;8.678;2023-06-14T04:46:49;17.77;;;16.77;;
80788;SDS011;70191;51.114;8.678;2023-06-14T04:49:15;17.08;;;16.00;;
80788;SDS011;70191;51.114;8.678;2023-06-14T04:51:42;16.95;;;15.95;;
80788;SDS011;70191;51.114;8.678;2023-06-14T04:54:08;18.52;;;17.42;;
80788;SDS011;70191;51.114;8.678;2023-06-14T04:56:35;17.88;;;16.80;;
80788;SDS011;70191;51.114;8.678;2023-06-14T04:59:02;18.23;;;17.15;;
80788;SDS011;70191;51.114;8.678;2023-06-14T05:01:29;18.00;;;17.00;;
80788;SDS011;70191;51.114;8.678;2023-06-14T05:03:56;18.50;;;17.40;;
80788;SDS011;70191;51.114;8.678;2023-06-14T05:06:22;18.50;;;17.50;;
80788;SDS011;70191;51.114;8.678;2023-06-14T05:08:48;18.50;;;17.40;;
80788;SDS011;70191;51.114;8.678;2023-06-14T05:11:14;18.73;;;17.60;;
80788;SDS011;70191;51.114;8.678;2023-06-14T05:13:41;19.27;;;18.17;;
80788;SDS011;70191;51.114;8.678;2023-06-14T05:16:08;18.70;;;17.50;;
80788;SDS011;70191;51.114;8.678;2023-06-14T05:18:34;18.30;;;17.23;;
80788;SDS011;70191;51.114;8.678;2023-06-14T05:21:00;18.20;;;17.20;;
80788;SDS011;70191;51.114;8.678;2023-06-14T05:23:26;18.50;;;17.40;;
80788;SDS011;70191;51.114;8.678;2023-06-14T05:25:52;18.48;;;17.35;;
80788;SDS011;70191;51.114;8.678;2023-06-14T05:28:18;18.13;;;17.13;;
80788;SDS011;70191;51.114;8.678;2023-06-14T05:30:43;17.63;;;16.52;;
80788;SDS011;70191;51.114;8.678;2023-06-14T05:33:09;17.35;;;16.35;;
80788;SDS011;70191;51.114;8.678;2023-06-14T05:35:34;17.50;;;16.45;;
80788;SDS011;70191;51.114;8.678;2023-06-14T05:38:00;17.88;;;16.88;;
80788;SDS011;70191;51.114;8.678;2023-06-14T05:40:26;17.85;;;16.75;;
80788;SDS011;70191;51.114;8.678;2023-06-14T05:42:51;17.65;;;16.63;;
80788;SDS011;70191;51.114;8.678;2023-06-14T05:45:17;17.73;;;16.73;;
80788;SDS011;70191;51.114;8.678;2023-06-14T05:47:42;18.10;;;16.92;;
80788;SDS011;70191;51.114;8.678;2023-06-14T05:50:08;19.27;;;17.83;;
80788;SDS011;70191;51.114;8.678;2023-06-14T05:52:34;26.75;;;20.00;;
80788;SDS011;70191;51.114;8.678;2023-06-14T05:55:01;36.72;;;21.67;;
80788;SDS011;70191;51.114;8.678;2023-06-14T05:57:28;23.25;;;21.20;;
80788;SDS011;70191;51.114;8.678;2023-06-14T05:59:54;21.70;;;19.90;;
80788;SDS011;70191;51.114;8.678;2023-06-14T06:02:19;23.27;;;20.45;;
80788;SDS011;70191;51.114;8.678;2023-06-14T06:04:45;26.85;;;20.80;;
80788;SDS011;70191;51.114;8.678;2023-06-14T06:07:10;21.98;;;19.77;;
80788;SDS011;70191;51.114;8.678;2023-06-14T06:09:36;22.95;;;19.58;;
80788;SDS011;70191;51.114;8.678;2023-06-14T06:12:02;20.35;;;18.75;;
80788;SDS011;70191;51.114;8.678;2023-06-14T06:14:28;22.83;;;20.67;;
80788;SDS011;70191;51.114;8.678;2023-06-14T06:16:54;22.80;;;20.60;;
80788;SDS011;70191;51.114;8.678;2023-06-14T06:21:50;22.40;;;20.20;;
80788;SDS011;70191;51.114;8.678;2023-06-14T06:24:16;22.55;;;20.27;;
80788;SDS011;70191;51.114;8.678;2023-06-14T06:26:41;21.20;;;19.30;;
80788;SDS011;70191;51.114;8.678;2023-06-14T06:29:07;30.13;;;19.88;;
80788;SDS011;70191;51.114;8.678;2023-06-14T06:31:33;21.45;;;19.42;;
80788;SDS011;70191;51.114;8.678;2023-06-14T06:33:58;21.30;;;19.33;;
80788;SDS011;70191;51.114;8.678;2023-06-14T06:36:24;26.17;;;19.50;;
80788;SDS011;70191;51.114;8.678;2023-06-14T06:38:50;22.08;;;20.30;;
80788;SDS011;70191;51.114;8.678;2023-06-14T06:41:16;20.73;;;19.05;;
80788;SDS011;70191;51.114;8.678;2023-06-14T06:43:41;25.38;;;20.88;;
80788;SDS011;70191;51.114;8.678;2023-06-14T06:46:07;21.55;;;19.85;;
80788;SDS011;70191;51.114;8.678;2023-06-14T06:48:33;21.92;;;20.02;;
80788;SDS011;70191;51.114;8.678;2023-06-14T06:50:58;25.52;;;20.25;;
80788;SDS011;70191;51.114;8.678;2023-06-14T06:53:24;21.02;;;19.20;;
80788;SDS011;70191;51.114;8.678;2023-06-14T06:55:49;22.33;;;20.08;;
80788;SDS011;70191;51.114;8.678;2023-06-14T06:58:15;21.70;;;19.92;;
80788;SDS011;70191;51.114;8.678;2023-06-14T07:00:41;21.23;;;19.58;;
80788;SDS011;70191;51.114;8.678;2023-06-14T07:03:06;20.92;;;19.20;;
80788;SDS011;70191;51.114;8.678;2023-06-14T07:05:32;21.98;;;19.90;;
80788;SDS011;70191;51.114;8.678;2023-06-14T07:07:57;21.55;;;19.38;;
80788;SDS011;70191;51.114;8.678;2023-06-14T07:10:23;27.17;;;19.02;;
80788;SDS011;70191;51.114;8.678;2023-06-14T07:12:49;21.38;;;19.40;;
80788;SDS011;70191;51.114;8.678;2023-06-14T07:15:15;20.70;;;18.83;;
80788;SDS011;70191;51.114;8.678;2023-06-14T07:17:41;19.90;;;18.23;;
80788;SDS011;70191;51.114;8.678;2023-06-14T07:20:07;21.52;;;19.55;;
80788;SDS011;70191;51.114;8.678;2023-06-14T07:22:36;19.92;;;18.33;;
80788;SDS011;70191;51.114;8.678;2023-06-14T07:25:06;21.40;;;19.50;;
80788;SDS011;70191;51.114;8.678;2023-06-14T07:27:38;19.20;;;17.70;;
80788;SDS011;70191;51.114;8.678;2023-06-14T07:30:05;20.92;;;18.98;;
80788;SDS011;70191;51.114;8.678;2023-06-14T07:32:31;21.23;;;19.30;;
80788;SDS011;70191;51.114;8.678;2023-06-14T07:34:57;20.30;;;18.65;;
80788;SDS011;70191;51.114;8.678;2023-06-14T07:37:22;21.30;;;19.50;;
80788;SDS011;70191;51.114;8.678;2023-06-14T07:39:48;20.55;;;18.83;;
80788;SDS011;70191;51.114;8.678;2023-06-14T07:42:13;20.20;;;18.70;;
80788;SDS011;70191;51.114;8.678;2023-06-14T07:44:39;20.60;;;18.88;;
80788;SDS011;70191;51.114;8.678;2023-06-14T07:47:05;20.67;;;19.13;;
80788;SDS011;70191;51.114;8.678;2023-06-14T07:49:31;21.20;;;19.60;;
80788;SDS011;70191;51.114;8.678;2023-06-14T07:51:56;20.90;;;19.08;;
80788;SDS011;70191;51.114;8.678;2023-06-14T07:54:22;20.90;;;19.15;;
80788;SDS011;70191;51.114;8.678;2023-06-14T07:56:51;20.73;;;18.88;;
80788;SDS011;70191;51.114;8.678;2023-06-14T07:59:17;20.35;;;18.85;;
80788;SDS011;70191;51.114;8.678;2023-06-14T08:01:43;20.35;;;18.80;;
80788;SDS011;70191;51.114;8.678;2023-06-14T08:04:13;21.90;;;19.75;;
80788;SDS011;70191;51.114;8.678;2023-06-14T08:06:39;21.17;;;19.45;;
80788;SDS011;70191;51.114;8.678;2023-06-14T08:09:04;20.85;;;19.20;;
80788;SDS011;70191;51.114;8.678;2023-06-14T08:11:30;20.80;;;18.92;;
80788;SDS011;70191;51.114;8.678;2023-06-14T08:13:56;20.58;;;19.05;;
80788;SDS011;70191;51.114;8.678;2023-06-14T08:16:22;20.50;;;18.90;;
80788;SDS011;70191;51.114;8.678;2023-06-14T08:18:48;19.88;;;18.58;;
80788;SDS011;70191;51.114;8.678;2023-06-14T08:21:14;20.35;;;18.60;;
80788;SDS011;70191;51.114;8.678;2023-06-14T08:23:40;20.10;;;18.42;;
80788;SDS011;70191;51.114;8.678;2023-06-14T08:26:07;20.05;;;18.23;;
80788;SDS011;70191;51.114;8.678;2023-06-14T08:28:33;19.88;;;18.38;;
80788;SDS011;70191;51.114;8.678;2023-06-14T08:30:59;19.88;;;18.30;;
80788;SDS011;70191;51.114;8.678;2023-06-14T08:33:25;18.83;;;17.52;;
80788;SDS011;70191;51.114;8.678;2023-06-14T08:35:50;18.65;;;17.38;;
80788;SDS011;70191;51.114;8.678;2023-06-14T08:38:16;19.23;;;17.80;;
80788;SDS011;70191;51.114;8.678;2023-06-14T08:40:42;19.92;;;18.30;;
80788;SDS011;70191;51.114;8.678;2023-06-14T08:43:07;20.42;;;18.95;;
80788;SDS011;70191;51.114;8.678;2023-06-14T08:45:33;20.00;;;18.35;;
80788;SDS011;70191;51.114;8.678;2023-06-14T08:47:59;20.27;;;18.60;;
80788;SDS011;70191;51.114;8.678;2023-06-14T08:50:25;18.98;;;17.42;;
80788;SDS011;70191;51.114;8.678;2023-06-14T08:52:53;19.73;;;18.08;;
80788;SDS011;70191;51.114;8.678;2023-06-14T08:55:21;20.27;;;18.77;;
80788;SDS011;70191;51.114;8.678;2023-06-14T08:57:51;19.98;;;18.45;;
80788;SDS011;70191;51.114;8.678;2023-06-14T09:00:18;19.20;;;18.00;;
80788;SDS011;70191;51.114;8.678;2023-06-14T09:02:45;19.65;;;18.13;;
80788;SDS011;70191;51.114;8.678;2023-06-14T09:05:12;19.67;;;18.48;;
80788;SDS011;70191;51.114;8.678;2023-06-14T09:07:41;19.67;;;18.23;;
80788;SDS011;70191;51.114;8.678;2023-06-14T09:10:13;19.58;;;18.27;;
80788;SDS011;70191;51.114;8.678;2023-06-14T09:12:40;19.17;;;17.95;;
80788;SDS011;70191;51.114;8.678;2023-06-14T09:15:06;19.13;;;17.83;;
80788;SDS011;70191;51.114;8.678;2023-06-14T09:17:34;19.13;;;17.90;;
80788;SDS011;70191;51.114;8.678;2023-06-14T09:20:03;18.75;;;17.55;;
80788;SDS011;70191;51.114;8.678;2023-06-14T09:22:31;19.50;;;18.20;;
80788;SDS011;70191;51.114;8.678;2023-06-14T09:24:58;19.70;;;18.40;;
80788;SDS011;70191;51.114;8.678;2023-06-14T09:27:28;19.52;;;18.27;;
80788;SDS011;70191;51.114;8.678;2023-06-14T09:29:54;19.17;;;17.70;;
80788;SDS011;70191;51.114;8.678;2023-06-14T09:32:20;20.15;;;18.73;;
80788;SDS011;70191;51.114;8.678;2023-06-14T09:34:46;19.95;;;18.42;;
80788;SDS011;70191;51.114;8.678;2023-06-14T09:37:12;20.25;;;18.52;;
80788;SDS011;70191;51.114;8.678;2023-06-14T09:39:50;25.45;;;21.10;;
80788;SDS011;70191;51.114;8.678;2023-06-14T09:42:16;25.02;;;22.85;;
80788;SDS011;70191;51.114;8.678;2023-06-14T09:44:44;26.63;;;23.92;;
80788;SDS011;70191;51.114;8.678;2023-06-14T09:47:12;25.10;;;22.73;;
80788;SDS011;70191;51.114;8.678;2023-06-14T09:49:42;23.38;;;21.58;;
80788;SDS011;70191;51.114;8.678;2023-06-14T09:52:15;24.95;;;22.50;;
80788;SDS011;70191;51.114;8.678;2023-06-14T09:54:45;27.52;;;21.95;;
